Time;durP1;ratioP1;P1;durP2;ratioP2;P2;SDS_P1;SDS_P2;PMS_P1;PMS_P2;Temp;Humidity;BMP_temperature;BMP_pressure;BME280_temperature;BME280_humidity;BME280_pressure;Samples;Min_cycle;Max_cycle;Signal;HPM_P1;HPM_P2
2023/04/19 00:02:10;;;;;;;4.07;2.33;;;;;;;;;;4382763;32;317184;-78
2023/04/19 00:04:38;;;;;;;3.53;2.13;;;;;;;;;;4372644;32;317136;-78
2023/04/19 00:07:05;;;;;;;3.43;2.20;;;;;;;;;;4391169;32;317591;-77
2023/04/19 00:09:32;;;;;;;2.93;2.10;;;;;;;;;;4386954;32;317303;-78
2023/04/19 00:11:59;;;;;;;3.87;2.07;;;;;;;;;;4395470;32;317358;-78
2023/04/19 00:14:26;;;;;;;4.13;2.80;;;;;;;;;;4388070;32;317696;-78
2023/04/19 00:16:55;;;;;;;5.80;2.90;;;;;;;;;;4397209;32;316838;-78
2023/04/19 00:19:22;;;;;;;7.13;3.43;;;;;;;;;;4384212;32;317200;-78
2023/04/19 00:21:49;;;;;;;6.90;3.63;;;;;;;;;;4396549;32;317686;-76
2023/04/19 00:24:16;;;;;;;6.67;3.83;;;;;;;;;;4383903;32;317204;-78
2023/04/19 00:26:43;;;;;;;6.70;3.40;;;;;;;;;;4396128;32;317134;-78
2023/04/19 00:29:09;;;;;;;4.17;3.23;;;;;;;;;;4382826;32;318491;-78
2023/04/19 00:31:38;;;;;;;3.97;2.53;;;;;;;;;;4377260;32;316920;-78
2023/04/19 00:34:07;;;;;;;8.53;4.30;;;;;;;;;;4397218;32;317353;-78
2023/04/19 00:36:34;;;;;;;2.87;2.17;;;;;;;;;;4377646;32;317169;-79
2023/04/19 00:39:02;;;;;;;4.30;2.53;;;;;;;;;;4381984;32;317163;-78
2023/04/19 00:41:29;;;;;;;5.70;3.07;;;;;;;;;;4371236;32;317280;-78
2023/04/19 00:43:56;;;;;;;8.57;3.93;;;;;;;;;;4381263;32;317197;-77
2023/04/19 00:46:24;;;;;;;11.10;5.47;;;;;;;;;;4371626;32;317395;-77
2023/04/19 00:48:50;;;;;;;7.17;4.47;;;;;;;;;;4375624;32;358785;-77
2023/04/19 00:51:19;;;;;;;4.23;2.90;;;;;;;;;;4372505;32;317253;-78
2023/04/19 00:53:46;;;;;;;4.47;3.10;;;;;;;;;;4380160;32;316413;-77
2023/04/19 00:56:14;;;;;;;6.07;3.70;;;;;;;;;;4369443;32;317171;-79
2023/04/19 00:58:41;;;;;;;8.50;3.00;;;;;;;;;;4385284;32;317183;-78
2023/04/19 01:01:08;;;;;;;7.27;3.87;;;;;;;;;;4382729;32;317564;-78
2023/04/19 01:03:35;;;;;;;5.80;4.13;;;;;;;;;;4383084;32;317437;-78
2023/04/19 01:06:02;;;;;;;8.03;4.43;;;;;;;;;;4396634;32;317238;-79
2023/04/19 01:08:30;;;;;;;10.13;5.57;;;;;;;;;;4386201;32;317047;-78
2023/04/19 01:10:57;;;;;;;7.63;4.27;;;;;;;;;;4397376;32;318298;-77
2023/04/19 01:13:24;;;;;;;9.77;5.23;;;;;;;;;;4374257;32;316717;-77
2023/04/19 01:15:51;;;;;;;8.83;4.77;;;;;;;;;;4383125;32;317023;-78
2023/04/19 01:18:18;;;;;;;6.30;4.57;;;;;;;;;;4376065;32;317650;-76
2023/04/19 01:20:45;;;;;;;9.43;4.10;;;;;;;;;;4385361;32;317042;-78
2023/04/19 01:23:13;;;;;;;12.10;4.03;;;;;;;;;;4392347;32;317102;-77
2023/04/19 01:25:39;;;;;;;6.30;3.77;;;;;;;;;;4371702;32;417868;-77
2023/04/19 01:28:06;;;;;;;6.43;4.43;;;;;;;;;;4385697;32;317170;-77
2023/04/19 01:30:34;;;;;;;7.83;4.70;;;;;;;;;;4376541;32;317129;-78
2023/04/19 01:33:01;;;;;;;9.43;4.93;;;;;;;;;;4384745;32;316675;-78
2023/04/19 01:35:27;;;;;;;5.53;3.40;;;;;;;;;;4370083;32;316402;-77
2023/04/19 01:37:55;;;;;;;5.83;3.57;;;;;;;;;;4408753;32;316968;-77
2023/04/19 01:40:25;;;;;;;3.23;2.37;;;;;;;;;;4373511;32;344341;-78
2023/04/19 01:42:51;;;;;;;3.47;2.57;;;;;;;;;;4384591;32;317180;-77
2023/04/19 01:45:18;;;;;;;5.03;2.20;;;;;;;;;;4388451;32;317276;-77
2023/04/19 01:47:45;;;;;;;4.57;2.50;;;;;;;;;;4399813;32;317203;-77
2023/04/19 01:50:13;;;;;;;4.97;2.27;;;;;;;;;;4377079;32;317475;-81
2023/04/19 01:52:42;;;;;;;4.77;2.87;;;;;;;;;;4384551;32;317137;-78
2023/04/19 01:55:09;;;;;;;3.87;2.50;;;;;;;;;;4383147;32;332629;-78
2023/04/19 01:57:38;;;;;;;3.90;2.30;;;;;;;;;;4375235;32;316804;-77
2023/04/19 02:00:05;;;;;;;5.30;2.80;;;;;;;;;;4399055;32;317118;-78
2023/04/19 02:02:32;;;;;;;7.00;3.07;;;;;;;;;;4393507;32;316906;-77
2023/04/19 02:05:01;;;;;;;4.50;3.00;;;;;;;;;;4397986;32;317299;-77
2023/04/19 02:07:28;;;;;;;3.70;2.30;;;;;;;;;;4388442;32;317591;-77
2023/04/19 02:09:55;;;;;;;3.77;2.20;;;;;;;;;;4387352;32;316656;-78
2023/04/19 02:12:22;;;;;;;4.83;3.50;;;;;;;;;;4372331;32;356668;-77
2023/04/19 02:14:50;;;;;;;4.07;3.07;;;;;;;;;;4381319;32;320822;-77
2023/04/19 02:17:17;;;;;;;15.70;2.90;;;;;;;;;;4366491;32;317478;-76
2023/04/19 02:19:44;;;;;;;7.90;2.30;;;;;;;;;;4387111;32;318395;-76
2023/04/19 02:22:12;;;;;;;3.87;2.83;;;;;;;;;;4384336;32;317570;-76
2023/04/19 02:24:38;;;;;;;2.97;2.07;;;;;;;;;;4377110;32;417642;-77
2023/04/19 02:27:05;;;;;;;4.00;2.57;;;;;;;;;;4383979;32;317416;-77
2023/04/19 02:29:32;;;;;;;4.17;2.43;;;;;;;;;;4372540;32;317423;-76
2023/04/19 02:32:04;;;;;;;3.97;3.10;;;;;;;;;;4384556;32;317197;-77
2023/04/19 02:34:31;;;;;;;7.43;3.50;;;;;;;;;;4374075;32;317489;-77
2023/04/19 02:36:58;;;;;;;9.27;5.63;;;;;;;;;;4383171;32;317791;-77
2023/04/19 02:39:25;;;;;;;16.30;9.07;;;;;;;;;;4384615;32;316549;-76
2023/04/19 02:41:52;;;;;;;13.23;9.87;;;;;;;;;;4397069;32;335152;-76
2023/04/19 02:44:19;;;;;;;11.97;7.83;;;;;;;;;;4379035;32;318202;-78
2023/04/19 02:46:49;;;;;;;12.57;5.60;;;;;;;;;;4383219;32;318584;-78
2023/04/19 02:49:17;;;;;;;7.53;6.00;;;;;;;;;;4371939;32;377555;-78
2023/04/19 02:51:44;;;;;;;9.13;5.97;;;;;;;;;;4382319;32;332979;-78
2023/04/19 02:54:11;;;;;;;9.57;6.40;;;;;;;;;;4383560;32;317151;-77
2023/04/19 02:56:38;;;;;;;6.40;4.37;;;;;;;;;;4385602;32;417049;-78
2023/04/19 02:59:05;;;;;;;6.13;3.23;;;;;;;;;;4395380;32;316880;-77
2023/04/19 03:01:32;;;;;;;5.77;3.23;;;;;;;;;;4388814;32;317239;-78
2023/04/19 03:04:00;;;;;;;5.03;2.27;;;;;;;;;;4398472;32;317343;-77
2023/04/19 03:06:29;;;;;;;6.70;2.00;;;;;;;;;;4387623;32;317629;-78
2023/04/19 03:08:55;;;;;;;2.63;1.80;;;;;;;;;;4393557;32;317197;-76
2023/04/19 03:11:22;;;;;;;14.70;6.30;;;;;;;;;;4373578;32;317130;-77
2023/04/19 03:13:49;;;;;;;34.67;19.17;;;;;;;;;;4383368;32;318324;-78
2023/04/19 03:16:19;;;;;;;32.10;17.17;;;;;;;;;;4373282;32;318789;-78
2023/04/19 03:18:46;;;;;;;21.83;12.13;;;;;;;;;;4380084;32;326796;-75
2023/04/19 03:21:12;;;;;;;11.03;7.83;;;;;;;;;;4371932;32;319166;-77
2023/04/19 03:23:40;;;;;;;8.23;5.90;;;;;;;;;;4397003;32;318120;-75
2023/04/19 03:26:07;;;;;;;10.47;5.93;;;;;;;;;;4397768;32;317474;-79
2023/04/19 03:28:34;;;;;;;7.37;4.30;;;;;;;;;;4384700;32;318213;-77
2023/04/19 03:31:02;;;;;;;7.43;5.23;;;;;;;;;;4383687;32;317093;-77
2023/04/19 03:33:29;;;;;;;10.77;5.20;;;;;;;;;;4370917;32;351082;-77
2023/04/19 03:35:55;;;;;;;5.47;4.53;;;;;;;;;;4383125;32;318295;-77
2023/04/19 03:38:22;;;;;;;9.20;4.43;;;;;;;;;;4375640;32;316726;-78
2023/04/19 03:40:51;;;;;;;7.67;5.07;;;;;;;;;;4381630;32;316672;-76
2023/04/19 03:43:18;;;;;;;7.00;4.67;;;;;;;;;;4389929;32;317449;-76
2023/04/19 03:45:46;;;;;;;10.97;5.37;;;;;;;;;;4397314;32;317258;-77
2023/04/19 03:48:13;;;;;;;11.57;6.43;;;;;;;;;;4386498;32;318349;-75
2023/04/19 03:50:40;;;;;;;9.60;6.40;;;;;;;;;;4383378;32;318302;-77
2023/04/19 03:53:07;;;;;;;11.93;5.87;;;;;;;;;;4397805;32;316420;-75
2023/04/19 03:55:34;;;;;;;13.67;8.30;;;;;;;;;;4387391;32;317983;-76
2023/04/19 03:58:02;;;;;;;16.80;10.70;;;;;;;;;;4397828;32;318170;-77
2023/04/19 04:00:29;;;;;;;14.73;9.17;;;;;;;;;;4387607;32;319637;-77
2023/04/19 04:02:55;;;;;;;11.37;6.80;;;;;;;;;;4397121;32;318055;-78
2023/04/19 04:05:23;;;;;;;10.83;7.20;;;;;;;;;;4373301;32;318212;-77
2023/04/19 04:07:52;;;;;;;11.53;8.07;;;;;;;;;;4382424;32;318170;-77
2023/04/19 04:10:19;;;;;;;15.03;10.20;;;;;;;;;;4370603;32;318418;-78
2023/04/19 04:12:46;;;;;;;29.17;16.37;;;;;;;;;;4381274;32;319234;-76
2023/04/19 04:15:14;;;;;;;20.37;12.17;;;;;;;;;;4372575;32;319261;-79
2023/04/19 04:17:41;;;;;;;20.27;11.67;;;;;;;;;;4382393;32;319227;-77
2023/04/19 04:20:10;;;;;;;23.03;11.70;;;;;;;;;;4381237;32;319067;-78
2023/04/19 04:22:40;;;;;;;15.70;10.00;;;;;;;;;;4371315;32;418497;-78
2023/04/19 04:25:08;;;;;;;17.63;10.00;;;;;;;;;;4385046;32;319110;-78
2023/04/19 04:27:35;;;;;;;13.43;7.10;;;;;;;;;;4370449;32;351916;-78
2023/04/19 04:30:02;;;;;;;14.57;8.80;;;;;;;;;;4380400;32;336180;-78
2023/04/19 04:32:34;;;;;;;18.87;10.33;;;;;;;;;;4372566;32;318510;-78
2023/04/19 04:35:01;;;;;;;36.63;15.53;;;;;;;;;;4381085;32;319405;-78
2023/04/19 04:37:47;;;;;;;31.97;14.63;;;;;;;;;;4368602;32;339914;-78
2023/04/19 04:40:14;;;;;;;59.87;31.50;;;;;;;;;;4385483;32;318439;-77
2023/04/19 04:42:41;;;;;;;69.73;44.53;;;;;;;;;;4395697;32;319221;-77
2023/04/19 04:45:09;;;;;;;61.80;34.93;;;;;;;;;;4383755;32;319151;-79
2023/04/19 04:47:39;;;;;;;60.53;31.67;;;;;;;;;;4373383;32;319281;-78
2023/04/19 04:50:07;;;;;;;33.00;18.60;;;;;;;;;;4393154;32;318907;-77
2023/04/19 04:52:33;;;;;;;27.27;14.23;;;;;;;;;;4385583;32;319391;-79
2023/04/19 04:55:00;;;;;;;26.07;14.07;;;;;;;;;;4395197;32;319642;-79
2023/04/19 04:57:27;;;;;;;29.93;17.03;;;;;;;;;;4369950;32;319320;-78
2023/04/19 04:59:55;;;;;;;27.10;16.60;;;;;;;;;;4390018;32;338398;-79
2023/04/19 05:02:25;;;;;;;35.83;16.30;;;;;;;;;;4385675;32;319082;-81
2023/04/19 05:04:54;;;;;;;35.67;20.07;;;;;;;;;;4385450;32;318810;-78
2023/04/19 05:07:21;;;;;;;36.00;19.07;;;;;;;;;;4369830;32;319689;-81
2023/04/19 05:09:49;;;;;;;35.57;20.27;;;;;;;;;;4380726;32;318773;-78
2023/04/19 05:12:16;;;;;;;31.00;19.07;;;;;;;;;;4370928;32;319361;-79
2023/04/19 05:14:42;;;;;;;34.90;19.40;;;;;;;;;;4381168;32;319330;-78
2023/04/19 05:17:09;;;;;;;31.50;16.67;;;;;;;;;;4379929;32;319325;-77
2023/04/19 05:19:36;;;;;;;31.23;15.90;;;;;;;;;;4368349;32;319699;-76
2023/04/19 05:22:04;;;;;;;26.83;14.87;;;;;;;;;;4370615;32;318724;-77
2023/04/19 05:24:31;;;;;;;22.67;13.63;;;;;;;;;;4365935;32;341635;-77
2023/04/19 05:26:58;;;;;;;22.33;13.20;;;;;;;;;;4374882;32;319479;-75
2023/04/19 05:29:25;;;;;;;15.27;9.77;;;;;;;;;;4368508;32;320262;-76
2023/04/19 05:31:52;;;;;;;20.23;10.13;;;;;;;;;;4386574;32;318505;-76
2023/04/19 05:34:19;;;;;;;12.90;9.10;;;;;;;;;;4383877;32;320041;-78
2023/04/19 05:36:48;;;;;;;14.83;9.07;;;;;;;;;;4385893;32;317696;-76
2023/04/19 05:39:18;;;;;;;12.57;7.80;;;;;;;;;;4378328;32;320552;-78
2023/04/19 05:41:44;;;;;;;12.13;8.50;;;;;;;;;;4396127;32;318179;-78
2023/04/19 05:44:12;;;;;;;21.97;7.53;;;;;;;;;;4393375;32;318995;-78
2023/04/19 05:46:39;;;;;;;11.23;7.97;;;;;;;;;;4380567;32;418929;-79
2023/04/19 05:49:06;;;;;;;13.73;8.10;;;;;;;;;;4386267;32;318846;-79
2023/04/19 05:51:34;;;;;;;7.93;6.47;;;;;;;;;;4382366;32;358277;-78
2023/04/19 05:54:02;;;;;;;9.40;6.73;;;;;;;;;;4392291;32;321457;-78
2023/04/19 05:56:31;;;;;;;6.10;5.03;;;;;;;;;;4377336;32;317593;-78
2023/04/19 05:58:59;;;;;;;14.57;7.57;;;;;;;;;;4384857;32;317923;-79
2023/04/19 06:01:26;;;;;;;10.97;6.90;;;;;;;;;;4382203;32;318303;-79
2023/04/19 06:03:53;;;;;;;6.23;5.10;;;;;;;;;;4394616;32;318107;-77
2023/04/19 06:06:21;;;;;;;7.57;4.70;;;;;;;;;;4377040;32;351971;-76
2023/04/19 06:08:48;;;;;;;7.10;3.70;;;;;;;;;;4392349;32;317299;-76
2023/04/19 06:11:15;;;;;;;6.87;4.60;;;;;;;;;;4379746;32;322433;-78
2023/04/19 06:13:43;;;;;;;9.35;5.53;;;;;;;;;;4388020;32;317321;-76
2023/04/19 06:16:11;;;;;;;5.10;3.53;;;;;;;;;;4382971;32;317668;-76
2023/04/19 06:18:38;;;;;;;6.13;4.03;;;;;;;;;;4372263;32;316754;-78
2023/04/19 06:21:05;;;;;;;7.23;3.43;;;;;;;;;;4383792;32;317469;-77
2023/04/19 06:23:32;;;;;;;4.60;2.80;;;;;;;;;;4366171;32;316947;-81
2023/04/19 06:25:58;;;;;;;6.00;4.17;;;;;;;;;;4386209;32;316631;-81
2023/04/19 06:28:25;;;;;;;6.40;3.63;;;;;;;;;;4383207;32;317447;-79
2023/04/19 06:30:53;;;;;;;4.60;3.30;;;;;;;;;;4380113;32;317207;-77
2023/04/19 06:33:23;;;;;;;9.40;3.77;;;;;;;;;;4371054;32;317651;-79
2023/04/19 06:35:50;;;;;;;3.97;2.57;;;;;;;;;;4381020;32;317549;-79
2023/04/19 06:38:17;;;;;;;6.13;2.70;;;;;;;;;;4372687;32;316696;-81
2023/04/19 06:40:44;;;;;;;3.63;3.33;;;;;;;;;;4398313;32;317206;-79
2023/04/19 06:43:10;;;;;;;5.37;3.93;;;;;;;;;;4380027;32;315841;-80
2023/04/19 06:45:37;;;;;;;6.53;2.67;;;;;;;;;;4384582;32;416820;-79
2023/04/19 06:48:06;;;;;;;5.47;2.30;;;;;;;;;;4391716;32;317051;-78
2023/04/19 06:50:33;;;;;;;2.13;1.87;;;;;;;;;;4386051;32;348286;-79
2023/04/19 06:53:01;;;;;;;4.67;2.50;;;;;;;;;;4398113;32;317210;-76
2023/04/19 06:55:29;;;;;;;3.37;2.07;;;;;;;;;;4381067;32;316797;-83
2023/04/19 06:57:56;;;;;;;3.30;2.20;;;;;;;;;;4396198;32;346695;-77
2023/04/19 07:00:23;;;;;;;3.00;2.33;;;;;;;;;;4374712;32;316730;-79
2023/04/19 07:02:50;;;;;;;4.83;2.03;;;;;;;;;;4382435;32;317320;-82
2023/04/19 07:05:19;;;;;;;4.10;1.73;;;;;;;;;;4376447;32;316390;-78
2023/04/19 07:07:46;;;;;;;1.53;1.40;;;;;;;;;;4387969;32;317240;-81
2023/04/19 07:10:12;;;;;;;4.40;1.63;;;;;;;;;;4375018;32;318070;-80
2023/04/19 07:12:39;;;;;;;2.37;1.70;;;;;;;;;;4391032;32;317452;-78
2023/04/19 07:15:07;;;;;;;3.20;1.45;;;;;;;;;;4396480;32;317150;-78
2023/04/19 07:17:36;;;;;;;3.60;2.10;;;;;;;;;;4381065;32;317351;-80
2023/04/19 07:20:05;;;;;;;2.43;2.17;;;;;;;;;;4391526;32;316718;-76
2023/04/19 07:22:33;;;;;;;4.28;1.92;;;;;;;;;;4386681;32;317218;-76
2023/04/19 07:25:02;;;;;;;1.83;1.65;;;;;;;;;;4393446;32;317777;-79
2023/04/19 07:27:28;;;;;;;2.37;1.50;;;;;;;;;;4388031;32;315913;-81
2023/04/19 07:29:55;;;;;;;4.13;2.00;;;;;;;;;;4387769;32;316451;-80
2023/04/19 07:32:22;;;;;;;4.07;2.50;;;;;;;;;;4371837;32;317131;-82
2023/04/19 07:34:50;;;;;;;2.00;1.80;;;;;;;;;;4391314;32;316699;-82
2023/04/19 07:37:17;;;;;;;2.50;1.98;;;;;;;;;;4379016;32;317556;-81
2023/04/19 07:39:45;;;;;;;2.47;2.08;;;;;;;;;;4396518;32;316703;-82
2023/04/19 07:42:12;;;;;;;2.65;1.92;;;;;;;;;;4396722;32;319871;-80
2023/04/19 07:44:40;;;;;;;2.08;1.65;;;;;;;;;;4378015;32;416540;-80
2023/04/19 07:47:07;;;;;;;2.53;1.90;;;;;;;;;;4390473;32;316717;-79
2023/04/19 07:49:34;;;;;;;4.25;2.80;;;;;;;;;;4368920;32;317398;-79
2023/04/19 07:52:01;;;;;;;3.58;2.50;;;;;;;;;;4382306;32;317427;-78
2023/04/19 07:54:29;;;;;;;2.70;2.27;;;;;;;;;;4369688;32;316723;-77
2023/04/19 07:56:57;;;;;;;2.37;1.73;;;;;;;;;;4381014;32;317361;-77
2023/04/19 07:59:24;;;;;;;4.60;1.80;;;;;;;;;;4378576;32;317295;-77
2023/04/19 08:01:51;;;;;;;6.12;2.30;;;;;;;;;;4397476;32;317533;-79
2023/04/19 08:04:18;;;;;;;5.05;2.72;;;;;;;;;;4380658;32;317676;-78
2023/04/19 08:06:48;;;;;;;4.57;2.90;;;;;;;;;;4381332;32;317000;-78
2023/04/19 08:09:15;;;;;;;3.08;2.08;;;;;;;;;;4379098;32;317732;-80
2023/04/19 08:11:42;;;;;;;4.28;2.53;;;;;;;;;;4397553;32;317050;-79
2023/04/19 08:14:10;;;;;;;2.10;1.65;;;;;;;;;;4391205;32;317675;-79
2023/04/19 08:16:36;;;;;;;4.83;1.53;;;;;;;;;;4385531;32;317327;-77
2023/04/19 08:19:03;;;;;;;2.45;1.92;;;;;;;;;;4390702;32;317515;-80
2023/04/19 08:21:30;;;;;;;5.72;2.22;;;;;;;;;;4371657;32;317569;-76
2023/04/19 08:23:57;;;;;;;2.35;1.90;;;;;;;;;;4389614;32;317439;-79
2023/04/19 08:26:24;;;;;;;6.25;2.15;;;;;;;;;;4372843;32;317651;-78
2023/04/19 08:28:51;;;;;;;6.05;1.73;;;;;;;;;;4381760;32;316436;-79
2023/04/19 08:31:20;;;;;;;3.92;1.50;;;;;;;;;;4370693;32;317434;-79
2023/04/19 08:33:47;;;;;;;1.58;1.25;;;;;;;;;;4390264;32;317422;-77
2023/04/19 08:36:15;;;;;;;5.35;2.37;;;;;;;;;;4377860;32;317150;-80
2023/04/19 08:38:42;;;;;;;3.25;1.80;;;;;;;;;;4394685;32;316530;-80
2023/04/19 08:41:11;;;;;;;2.70;1.62;;;;;;;;;;4393142;32;317317;-80
2023/04/19 08:43:39;;;;;;;5.85;1.37;;;;;;;;;;4379555;32;418945;-77
2023/04/19 08:46:07;;;;;;;1.75;1.30;;;;;;;;;;4379509;32;317394;-80
2023/04/19 08:48:37;;;;;;;3.37;1.42;;;;;;;;;;4373694;32;317851;-79
2023/04/19 08:51:05;;;;;;;2.83;1.45;;;;;;;;;;4386203;32;316709;-78
2023/04/19 08:53:36;;;;;;;6.60;1.75;;;;;;;;;;4381790;32;317234;-77
2023/04/19 08:56:03;;;;;;;5.10;2.28;;;;;;;;;;4382884;32;317301;-79
2023/04/19 08:58:31;;;;;;;2.40;2.05;;;;;;;;;;4381747;32;317551;-77
2023/04/19 09:01:01;;;;;;;6.78;1.75;;;;;;;;;;4395750;32;317225;-79
2023/04/19 09:03:28;;;;;;;2.45;1.40;;;;;;;;;;4386469;32;317392;-79
2023/04/19 09:05:56;;;;;;;2.80;1.50;;;;;;;;;;4397091;32;317207;-81
2023/04/19 09:08:25;;;;;;;11.27;1.77;;;;;;;;;;4371440;32;317111;-81
2023/04/19 09:10:56;;;;;;;1.48;1.30;;;;;;;;;;4380640;32;317601;-81
2023/04/19 09:13:22;;;;;;;1.50;1.20;;;;;;;;;;4369748;32;317087;-81
2023/04/19 09:15:50;;;;;;;2.55;1.45;;;;;;;;;;4379574;32;317289;-80
2023/04/19 09:18:18;;;;;;;1.65;1.25;;;;;;;;;;4370032;32;317465;-78
2023/04/19 09:20:45;;;;;;;3.10;1.67;;;;;;;;;;4379420;32;317233;-82
2023/04/19 09:23:14;;;;;;;3.00;1.20;;;;;;;;;;4391408;32;316764;-81
2023/04/19 09:25:53;;;;;;;1.83;1.62;;;;;;;;;;4379298;32;416950;-82
2023/04/19 09:28:20;;;;;;;6.68;1.37;;;;;;;;;;4383124;32;318106;-84
2023/04/19 09:30:47;;;;;;;3.12;2.28;;;;;;;;;;4391886;32;316466;-81
2023/04/19 09:33:13;;;;;;;1.50;1.30;;;;;;;;;;4393842;32;317101;-82
2023/04/19 09:35:42;;;;;;;5.70;1.55;;;;;;;;;;4392586;32;317366;-81
2023/04/19 09:38:10;;;;;;;3.47;1.60;;;;;;;;;;4397451;32;317099;-82
2023/04/19 09:40:39;;;;;;;2.75;1.62;;;;;;;;;;4372976;32;317139;-80
2023/04/19 09:43:08;;;;;;;6.95;2.47;;;;;;;;;;4383170;32;317490;-82
2023/04/19 09:45:42;;;;;;;4.62;2.40;;;;;;;;;;4371834;32;317716;-80
2023/04/19 09:48:10;;;;;;;4.22;2.10;;;;;;;;;;4382927;32;317301;-81
2023/04/19 09:50:51;;;;;;;3.40;2.25;;;;;;;;;;4361312;32;316736;-81
2023/04/19 09:53:20;;;;;;;3.65;1.90;;;;;;;;;;4376590;32;317145;-80
2023/04/19 09:55:48;;;;;;;3.53;2.37;;;;;;;;;;4393384;32;317730;-82
2023/04/19 09:58:15;;;;;;;2.75;1.90;;;;;;;;;;4387499;32;317362;-81
2023/04/19 10:00:46;;;;;;;3.47;2.00;;;;;;;;;;4382223;32;317796;-83
2023/04/19 10:03:14;;;;;;;6.53;2.30;;;;;;;;;;4373510;32;317667;-82
2023/04/19 10:05:42;;;;;;;8.75;2.60;;;;;;;;;;4382772;32;316747;-80
2023/04/19 10:08:10;;;;;;;8.23;1.50;;;;;;;;;;4383836;32;316262;-81
2023/04/19 10:10:39;;;;;;;2.23;1.67;;;;;;;;;;4373762;32;316514;-84
2023/04/19 10:13:11;;;;;;;4.18;1.90;;;;;;;;;;4384190;32;317585;-82
2023/04/19 10:15:39;;;;;;;5.78;2.22;;;;;;;;;;4371140;32;416304;-81
2023/04/19 10:18:07;;;;;;;2.85;1.98;;;;;;;;;;4384135;32;317258;-81
2023/04/19 10:20:52;;;;;;;3.75;2.00;;;;;;;;;;4373335;32;317311;-81
2023/04/19 10:23:20;;;;;;;1.75;1.50;;;;;;;;;;4380053;32;317238;-81
2023/04/19 10:25:48;;;;;;;3.50;2.00;;;;;;;;;;4396592;32;317465;-81
2023/04/19 10:28:17;;;;;;;1.90;1.50;;;;;;;;;;4387481;32;317305;-79
2023/04/19 10:30:54;;;;;;;3.78;2.28;;;;;;;;;;4384113;32;317937;-78
2023/04/19 10:33:26;;;;;;;3.72;2.75;;;;;;;;;;4374228;32;317184;-81
2023/04/19 10:35:56;;;;;;;5.28;2.30;;;;;;;;;;4394115;32;317287;-80
2023/04/19 10:38:36;;;;;;;4.32;2.22;;;;;;;;;;4373459;32;317234;-83
2023/04/19 10:41:04;;;;;;;3.95;2.12;;;;;;;;;;4383640;32;317023;-81
2023/04/19 10:43:35;;;;;;;4.82;3.10;;;;;;;;;;4372106;32;316420;-81
2023/04/19 10:46:06;;;;;;;5.75;4.60;;;;;;;;;;4382554;32;317280;-81
2023/04/19 10:48:45;;;;;;;7.85;4.15;;;;;;;;;;4372771;32;317156;-81
2023/04/19 10:51:20;;;;;;;5.18;2.95;;;;;;;;;;4381435;32;317346;-81
2023/04/19 10:53:58;;;;;;;8.10;3.33;;;;;;;;;;4368833;32;416384;-81
2023/04/19 10:57:03;;;;;;;3.60;2.37;;;;;;;;;;4372895;32;317135;-81
2023/04/19 10:59:33;;;;;;;4.53;3.00;;;;;;;;;;4383446;32;317431;-80
2023/04/19 11:02:03;;;;;;;7.78;2.90;;;;;;;;;;4391587;32;317216;-81
2023/04/19 11:05:00;;;;;;;4.35;2.83;;;;;;;;;;4379830;32;317209;-80
2023/04/19 11:07:26;;;;;;;3.33;2.25;;;;;;;;;;4381819;32;316587;-81
2023/04/19 11:09:53;;;;;;;3.70;2.40;;;;;;;;;;4392401;32;317132;-82
2023/04/19 11:12:21;;;;;;;8.75;2.20;;;;;;;;;;4390863;32;316973;-86
2023/04/19 11:14:53;;;;;;;3.58;2.47;;;;;;;;;;4391362;32;316373;-81
2023/04/19 11:17:24;;;;;;;2.17;1.77;;;;;;;;;;4371196;32;317396;-81
2023/04/19 11:19:55;;;;;;;2.83;2.05;;;;;;;;;;4382818;32;317128;-78
2023/04/19 11:22:26;;;;;;;4.07;2.20;;;;;;;;;;4384642;32;317302;-78
2023/04/19 11:24:53;;;;;;;7.30;3.12;;;;;;;;;;4397359;32;316582;-81
2023/04/19 11:27:22;;;;;;;2.90;2.03;;;;;;;;;;4386018;32;316857;-78
2023/04/19 11:30:01;;;;;;;4.70;3.50;;;;;;;;;;4382569;32;317715;-78
2023/04/19 11:32:28;;;;;;;3.55;2.50;;;;;;;;;;4373685;32;317667;-79
2023/04/19 11:34:57;;;;;;;3.92;2.85;;;;;;;;;;4380753;32;316936;-79
2023/04/19 11:37:24;;;;;;;3.55;2.10;;;;;;;;;;4371123;32;317235;-80
2023/04/19 11:39:53;;;;;;;3.87;2.83;;;;;;;;;;4386869;32;351379;-81
2023/04/19 11:42:20;;;;;;;5.57;1.73;;;;;;;;;;4369809;32;317095;-81
2023/04/19 11:44:51;;;;;;;8.52;1.90;;;;;;;;;;4382139;32;317547;-81
2023/04/19 11:47:20;;;;;;;4.65;1.92;;;;;;;;;;4375858;32;317498;-79
2023/04/19 11:49:48;;;;;;;3.90;1.90;;;;;;;;;;4382106;32;342277;-78
2023/04/19 11:52:22;;;;;;;3.15;1.90;;;;;;;;;;4371712;32;317262;-78
2023/04/19 11:54:49;;;;;;;2.67;1.62;;;;;;;;;;4378236;32;316692;-78
2023/04/19 11:57:27;;;;;;;3.35;2.30;;;;;;;;;;4380918;32;317290;-78
2023/04/19 12:00:10;;;;;;;3.30;2.20;;;;;;;;;;4395282;32;316776;-78
2023/04/19 12:02:40;;;;;;;2.35;1.58;;;;;;;;;;4387889;32;317147;-79
2023/04/19 12:05:10;;;;;;;4.50;2.15;;;;;;;;;;4385587;32;324914;-78
2023/04/19 12:07:37;;;;;;;1.77;1.60;;;;;;;;;;4372245;32;316520;-79
2023/04/19 12:10:11;;;;;;;10.35;1.48;;;;;;;;;;4382297;32;317534;-78
2023/04/19 12:12:38;;;;;;;7.65;1.80;;;;;;;;;;4369937;32;417924;-78
2023/04/19 12:15:08;;;;;;;4.18;2.10;;;;;;;;;;4382339;32;316300;-78
2023/04/19 12:17:55;;;;;;;2.05;1.62;;;;;;;;;;4372983;32;317159;-77
2023/04/19 12:20:31;;;;;;;4.47;2.37;;;;;;;;;;4383489;32;317116;-78
2023/04/19 12:22:58;;;;;;;3.03;2.60;;;;;;;;;;4392953;32;318103;-78
2023/04/19 12:25:28;;;;;;;5.60;2.42;;;;;;;;;;4377018;32;317078;-77
2023/04/19 12:27:55;;;;;;;7.95;2.97;;;;;;;;;;4397844;32;317658;-78
2023/04/19 12:30:22;;;;;;;3.05;1.95;;;;;;;;;;4378422;32;317545;-77
2023/04/19 12:32:50;;;;;;;2.37;1.73;;;;;;;;;;4395472;32;317085;-78
2023/04/19 12:35:17;;;;;;;4.85;2.40;;;;;;;;;;4383009;32;317182;-79
2023/04/19 12:37:46;;;;;;;2.42;1.80;;;;;;;;;;4381835;32;317143;-83
2023/04/19 12:40:15;;;;;;;4.37;1.87;;;;;;;;;;4383622;32;316524;-81
2023/04/19 12:42:42;;;;;;;2.17;1.55;;;;;;;;;;4368519;32;416782;-78
2023/04/19 12:45:10;;;;;;;6.45;1.90;;;;;;;;;;4380902;32;317061;-82
2023/04/19 12:47:37;;;;;;;1.55;1.37;;;;;;;;;;4372866;32;317640;-87
2023/04/19 12:50:05;;;;;;;7.82;2.50;;;;;;;;;;4382447;32;317237;-85
2023/04/19 12:52:31;;;;;;;1.92;1.73;;;;;;;;;;4374294;32;317186;-85
2023/04/19 12:54:59;;;;;;;2.47;1.60;;;;;;;;;;4383165;32;316467;-86
2023/04/19 12:57:26;;;;;;;4.00;2.12;;;;;;;;;;4390396;32;317291;-84
2023/04/19 12:59:53;;;;;;;4.22;2.45;;;;;;;;;;4385468;32;317562;-86
2023/04/19 13:02:20;;;;;;;3.85;1.60;;;;;;;;;;4371668;32;317234;-80
2023/04/19 13:04:46;;;;;;;3.42;2.05;;;;;;;;;;4379279;32;357021;-81
2023/04/19 13:07:13;;;;;;;5.97;2.85;;;;;;;;;;4371840;32;317160;-81
2023/04/19 13:09:42;;;;;;;3.20;2.40;;;;;;;;;;4381549;32;316617;-80
2023/04/19 13:12:11;;;;;;;2.35;1.98;;;;;;;;;;4383053;32;317809;-80
2023/04/19 13:14:37;;;;;;;1.83;1.70;;;;;;;;;;4385516;32;320631;-80
2023/04/19 13:17:04;;;;;;;6.85;2.15;;;;;;;;;;4376923;32;317623;-80
2023/04/19 13:19:31;;;;;;;4.68;2.67;;;;;;;;;;4386281;32;317423;-80
2023/04/19 13:21:57;;;;;;;4.45;2.80;;;;;;;;;;4394024;32;354254;-80
2023/04/19 13:24:26;;;;;;;6.97;2.85;;;;;;;;;;4373679;32;316524;-79
2023/04/19 13:26:52;;;;;;;3.90;2.37;;;;;;;;;;4390945;32;316926;-78
2023/04/19 13:29:20;;;;;;;6.35;1.80;;;;;;;;;;4386724;32;317209;-80
2023/04/19 13:31:48;;;;;;;7.68;2.92;;;;;;;;;;4386231;32;317625;-81
2023/04/19 13:34:15;;;;;;;6.55;2.12;;;;;;;;;;4386419;32;317471;-82
2023/04/19 13:36:41;;;;;;;2.90;2.22;;;;;;;;;;4390234;32;316492;-79
2023/04/19 13:39:08;;;;;;;2.53;1.95;;;;;;;;;;4384650;32;317540;-77
2023/04/19 13:41:35;;;;;;;7.93;1.87;;;;;;;;;;4373558;32;317408;-82
2023/04/19 13:44:02;;;;;;;13.98;2.25;;;;;;;;;;4384261;32;317359;-80
2023/04/19 13:46:30;;;;;;;10.30;2.37;;;;;;;;;;4373400;32;318431;-78
2023/04/19 13:48:57;;;;;;;4.87;2.80;;;;;;;;;;4387776;32;318163;-80
2023/04/19 13:51:24;;;;;;;3.62;2.72;;;;;;;;;;4387872;32;317230;-79
2023/04/19 13:53:50;;;;;;;3.05;2.35;;;;;;;;;;4395113;32;334246;-81
2023/04/19 13:56:17;;;;;;;3.45;2.05;;;;;;;;;;4365514;32;316567;-81
2023/04/19 13:58:49;;;;;;;4.37;2.75;;;;;;;;;;4391921;32;317339;-81
2023/04/19 14:01:16;;;;;;;3.40;2.70;;;;;;;;;;4373524;32;317666;-81
2023/04/19 14:03:45;;;;;;;6.80;3.00;;;;;;;;;;4386150;32;317755;-81
2023/04/19 14:06:12;;;;;;;3.55;2.90;;;;;;;;;;4399218;32;316446;-89
2023/04/19 14:08:38;;;;;;;3.15;2.67;;;;;;;;;;4387187;32;414457;-83
2023/04/19 14:11:05;;;;;;;5.20;3.45;;;;;;;;;;4399089;32;317529;-81
2023/04/19 14:13:33;;;;;;;8.88;2.50;;;;;;;;;;4387514;32;316425;-81
2023/04/19 14:16:00;;;;;;;14.77;3.08;;;;;;;;;;4398840;32;316591;-83
2023/04/19 14:18:27;;;;;;;10.18;5.28;;;;;;;;;;4380448;32;318238;-81
2023/04/19 14:20:55;;;;;;;10.25;4.57;;;;;;;;;;4384425;32;318452;-84
2023/04/19 14:23:22;;;;;;;13.85;4.80;;;;;;;;;;4381123;32;318660;-85
2023/04/19 14:25:49;;;;;;;14.00;6.15;;;;;;;;;;4396302;32;318272;-83
2023/04/19 14:28:15;;;;;;;20.55;4.72;;;;;;;;;;4374292;32;335103;-85
2023/04/19 14:30:42;;;;;;;6.28;4.62;;;;;;;;;;4390371;32;318379;-82
2023/04/19 14:33:09;;;;;;;8.88;4.95;;;;;;;;;;4383255;32;317333;-83